Time;durP1;ratioP1;P1;durP2;ratioP2;P2;SDS_P1;SDS_P2;PMS_P1;PMS_P2;Temp;Humidity;BMP_temperature;BMP_pressure;BME280_temperature;BME280_humidity;BME280_pressure;Samples;Min_cycle;Max_cycle;Signal;HPM_P1;HPM_P2
2023/07/13 05:58:48;;;;;;;;;2.00;1.00;;;;;25.37;42.14;101467.50;5093253;27;45452;-59
2023/07/13 06:01:15;;;;;;;;;1.50;1.50;;;;;25.80;41.42;101466.94;5075927;28;45306;-58
2023/07/13 06:03:40;;;;;;;;;2.75;1.00;;;;;26.00;40.48;101470.47;5075225;27;45294;-59
2023/07/13 06:06:07;;;;;;;;;1.00;1.00;;;;;26.00;40.18;101474.09;5075212;27;45396;-59
2023/07/13 06:08:33;;;;;;;;;2.50;2.00;;;;;26.15;40.25;101476.31;5074988;27;45177;-59
2023/07/13 06:11:06;;;;;;;;;2.00;2.00;;;;;26.30;40.17;101486.66;5075837;27;45427;-59
2023/07/13 06:13:33;;;;;;;;;2.50;2.50;;;;;26.31;40.40;101493.03;5075911;27;45334;-59
2023/07/13 06:15:58;;;;;;;;;3.50;2.00;;;;;26.35;39.93;101488.97;5075237;27;46199;-59
2023/07/13 06:18:23;;;;;;;;;2.75;2.75;;;;;26.57;39.67;101480.28;5075151;27;45320;-58
2023/07/13 06:20:49;;;;;;;;;1.25;1.25;;;;;26.60;39.71;101485.47;5075329;28;52706;-59
2023/07/13 06:25:49;;;;;;;;;1.00;1.00;;;;;26.66;39.37;101495.84;5180328;22;45580;-58
2023/07/13 06:28:14;;;;;;;;;2.00;1.50;;;;;26.75;39.31;101494.03;5052807;28;46080;-57
2023/07/13 06:30:40;;;;;;;;;0.50;0.50;;;;;26.87;38.68;101495.53;5054573;28;45276;-57
2023/07/13 06:33:06;;;;;;;;;2.50;1.50;;;;;26.87;39.22;101495.53;5060053;28;45246;-55
2023/07/13 06:35:31;;;;;;;;;1.75;1.75;;;;;26.98;38.75;101502.69;5056131;28;45247;-59
2023/07/13 06:37:56;;;;;;;;;1.50;1.50;;;;;27.08;38.63;101503.47;5055295;28;46070;-57
2023/07/13 06:40:21;;;;;;;;;2.75;0.00;;;;;26.95;38.65;101508.53;5054517;28;47169;-56
2023/07/13 06:42:47;;;;;;;;;2.75;1.00;;;;;26.89;39.18;101487.97;5057495;28;45347;-56
2023/07/13 06:45:12;;;;;;;;;2.00;2.00;;;;;27.05;38.69;101487.31;5054796;28;56080;-57
2023/07/13 06:47:37;;;;;;;;;1.25;1.25;;;;;27.10;38.90;101494.06;5055085;28;45437;-56
2023/07/13 06:50:03;;;;;;;;;2.00;2.00;;;;;27.25;38.39;101507.22;5054954;28;48510;-57
2023/07/13 06:52:28;;;;;;;;;0.75;0.75;;;;;27.20;38.88;101493.09;5055123;28;45298;-57
2023/07/13 06:54:53;;;;;;;;;2.00;2.00;;;;;27.30;38.43;101503.00;5054702;28;46490;-57
2023/07/13 06:57:19;;;;;;;;;3.25;1.50;;;;;27.23;38.65;101503.75;5054760;28;47783;-55
2023/07/13 06:59:44;;;;;;;;;2.25;0.50;;;;;27.25;38.92;101498.97;5050493;28;45334;-56
2023/07/13 07:02:11;;;;;;;;;1.50;1.50;;;;;27.17;39.28;101510.78;5041705;28;45256;-56
2023/07/13 07:04:36;;;;;;;;;4.25;2.50;;;;;27.15;39.41;101501.81;5041312;28;45478;-56
2023/07/13 07:07:02;;;;;;;;;5.25;4.50;;;;;27.18;39.81;101501.50;5041476;28;45327;-58
2023/07/13 07:09:29;;;;;;;;;2.25;2.25;;;;;27.02;39.75;101501.38;5041128;28;45237;-58
2023/07/13 07:11:54;;;;;;;;;4.00;3.00;;;;;27.15;39.69;101509.22;5040836;28;45351;-56
2023/07/13 07:14:20;;;;;;;;;2.50;2.50;;;;;27.35;39.44;101510.75;5040805;28;58770;-58
2023/07/13 07:16:45;;;;;;;;;2.00;2.00;;;;;27.50;38.91;101509.13;5040449;28;45302;-55
2023/07/13 07:19:10;;;;;;;;;5.75;4.25;;;;;27.42;39.06;101514.59;5040949;28;46221;-57
2023/07/13 07:21:36;;;;;;;;;2.50;0.50;;;;;27.41;39.14;101512.84;5040948;28;49417;-58
2023/07/13 07:24:03;;;;;;;;;3.00;3.00;;;;;27.65;38.90;101514.94;5040562;28;45259;-58
2023/07/13 07:26:28;;;;;;;;;3.00;1.75;;;;;27.78;38.80;101512.63;5038514;28;46479;-57
2023/07/13 07:28:53;;;;;;;;;5.00;1.75;;;;;27.82;38.40;101516.78;5040931;28;45382;-57
2023/07/13 07:31:18;;;;;;;;;2.50;2.00;;;;;27.95;38.63;101514.44;5039951;28;50476;-57
2023/07/13 07:33:44;;;;;;;;;3.00;3.00;;;;;28.11;38.41;101531.06;5053316;28;45318;-57
2023/07/13 07:36:09;;;;;;;;;3.50;3.50;;;;;27.92;38.34;101524.94;5041501;28;46125;-56
2023/07/13 07:38:35;;;;;;;;;1.75;1.75;;;;;27.94;38.47;101520.13;5041078;28;45328;-57
2023/07/13 07:41:05;;;;;;;;;3.00;3.00;;;;;28.07;38.86;101523.31;5040218;28;46200;-57
2023/07/13 07:43:31;;;;;;;;;2.75;1.50;;;;;28.15;38.67;101526.97;5040225;28;45744;-57
2023/07/13 07:45:56;;;;;;;;;3.00;3.00;;;;;28.26;38.22;101533.22;5040827;28;45288;-57
2023/07/13 07:48:22;;;;;;;;;4.00;3.00;;;;;28.41;38.31;101531.59;5040726;28;45219;-56
2023/07/13 07:50:47;;;;;;;;;2.25;2.25;;;;;28.47;37.97;101525.38;5039669;28;45918;-57
2023/07/13 07:53:12;;;;;;;;;3.25;2.75;;;;;28.43;37.66;101533.13;5040570;28;45436;-56
2023/07/13 07:55:38;;;;;;;;;1.25;1.25;;;;;28.47;38.04;101539.19;5040438;28;46236;-57
2023/07/13 07:58:04;;;;;;;;;3.25;3.25;;;;;28.55;37.67;101536.44;5039788;28;45343;-56
2023/07/13 08:00:31;;;;;;;;;2.25;2.00;;;;;28.64;37.88;101534.56;5051051;28;45342;-56
2023/07/13 08:02:57;;;;;;;;;2.50;2.50;;;;;28.57;36.97;101539.91;5040484;28;45393;-58
2023/07/13 08:05:23;;;;;;;;;2.00;2.00;;;;;28.36;37.66;101533.97;5040204;28;46307;-57
2023/07/13 08:07:48;;;;;;;;;3.50;3.50;;;;;28.64;37.52;101542.84;5039631;28;45214;-56
2023/07/13 08:10:14;;;;;;;;;5.75;2.75;;;;;28.64;37.65;101543.72;5032913;28;45367;-57
2023/07/13 08:12:40;;;;;;;;;3.00;3.00;;;;;28.87;37.26;101543.97;5038806;28;45502;-58
2023/07/13 08:15:09;;;;;;;;;3.25;2.75;;;;;28.90;36.88;101543.63;5038918;28;45293;-58
2023/07/13 08:17:34;;;;;;;;;2.00;2.00;;;;;28.79;36.98;101539.28;5039237;28;45458;-55
2023/07/13 08:20:00;;;;;;;;;5.75;2.50;;;;;28.96;37.00;101549.34;5039533;28;45261;-58
2023/07/13 08:22:25;;;;;;;;;3.25;2.00;;;;;28.83;36.71;101531.56;5038760;28;49500;-58
2023/07/13 08:24:55;;;;;;;;;2.50;2.50;;;;;29.03;36.68;101555.03;5037810;28;52392;-58
2023/07/13 08:27:24;;;;;;;;;4.75;1.50;;;;;28.72;36.61;101543.72;5039286;28;45186;-57
2023/07/13 08:29:50;;;;;;;;;2.00;1.75;;;;;28.60;36.99;101545.94;5039022;28;45431;-58
2023/07/13 08:32:15;;;;;;;;;1.75;1.75;;;;;28.49;37.15;101551.78;5039996;28;45410;-58
2023/07/13 08:34:40;;;;;;;;;3.25;3.25;;;;;28.48;36.71;101550.06;5038835;28;45386;-58
2023/07/13 08:37:06;;;;;;;;;2.50;2.50;;;;;28.75;36.46;101546.13;5038917;28;45311;-57
2023/07/13 08:39:32;;;;;;;;;2.50;2.25;;;;;28.78;36.71;101539.47;5038936;28;45379;-57
2023/07/13 08:42:04;;;;;;;;;2.50;2.50;;;;;28.60;36.08;101540.41;5039558;28;45440;-58
2023/07/13 08:44:50;;;;;;;;;4.00;2.25;;;;;28.79;36.22;101541.19;5039627;28;47052;-56
2023/07/13 08:47:16;;;;;;;;;4.00;2.50;;;;;28.88;36.09;101542.94;5038904;28;45331;-58
2023/07/13 08:49:44;;;;;;;;;1.75;1.75;;;;;29.06;35.42;101528.97;5039915;28;45339;-58
2023/07/13 08:52:26;;;;;;;;;3.25;1.25;;;;;28.96;35.59;101537.41;5039364;28;45457;-58
2023/07/13 08:54:56;;;;;;;;;3.25;1.75;;;;;28.83;35.06;101537.06;5039013;28;45472;-58
2023/07/13 08:57:30;;;;;;;;;2.25;2.00;;;;;28.82;34.44;101547.25;5039259;28;45293;-57
2023/07/13 08:59:56;;;;;;;;;0.75;0.75;;;;;28.92;33.74;101545.16;5039073;28;45425;-58
2023/07/13 09:02:43;;;;;;;;;1.00;1.00;;;;;28.95;33.20;101552.25;5038910;28;46053;-57
2023/07/13 09:05:15;;;;;;;;;1.50;1.50;;;;;29.08;33.40;101551.78;5037742;28;45564;-61
2023/07/13 09:08:12;;;;;;;;;2.00;1.50;;;;;29.33;32.79;101554.38;5039104;28;45494;-58
2023/07/13 09:10:49;;;;;;;;;2.25;0.75;;;;;29.22;32.94;101548.31;5039150;28;45371;-58
2023/07/13 09:13:37;;;;;;;;;2.75;1.50;;;;;29.14;33.04;101540.03;5037627;28;45418;-58
2023/07/13 09:16:03;;;;;;;;;2.00;2.00;;;;;29.24;33.28;101541.59;5039150;28;45351;-58
2023/07/13 09:18:35;;;;;;;;;1.50;1.50;;;;;29.30;33.21;101537.25;5038955;28;45286;-57
2023/07/13 09:21:11;;;;;;;;;0.75;0.75;;;;;29.48;32.21;101537.13;5038994;28;45388;-57
2023/07/13 09:23:38;;;;;;;;;1.50;0.50;;;;;29.33;32.84;101545.22;5038942;28;45391;-58
2023/07/13 09:26:20;;;;;;;;;4.50;1.75;;;;;29.48;32.51;101535.22;5038050;28;46591;-59
2023/07/13 09:28:49;;;;;;;;;1.25;1.25;;;;;29.54;32.66;101537.28;5038834;28;45363;-58
2023/07/13 09:31:26;;;;;;;;;1.75;1.75;;;;;29.45;32.78;101535.56;5038462;28;45514;-58
2023/07/13 09:33:51;;;;;;;;;1.00;1.00;;;;;29.27;31.09;101529.31;5039727;28;45416;-58
2023/07/13 09:36:29;;;;;;;;;2.00;2.00;;;;;29.15;31.85;101541.75;5038883;28;45537;-57
2023/07/13 09:39:10;;;;;;;;;0.25;0.25;;;;;28.96;31.36;101542.94;5038474;28;45389;-58
2023/07/13 09:41:51;;;;;;;;;1.25;0.00;;;;;28.97;32.07;101542.78;5038452;28;45231;-58
2023/07/13 09:44:28;;;;;;;;;2.00;2.00;;;;;29.01;32.17;101540.53;5038900;28;45273;-58
2023/07/13 09:46:55;;;;;;;;;4.25;2.75;;;;;29.13;32.83;101550.22;5038505;28;45308;-59
2023/07/13 09:49:28;;;;;;;;;1.50;1.50;;;;;29.21;32.95;101547.44;5038858;28;45354;-57
2023/07/13 09:52:06;;;;;;;;;0.75;0.75;;;;;29.25;33.10;101545.22;5038708;28;45293;-60
2023/07/13 09:54:36;;;;;;;;;4.75;2.25;;;;;29.42;32.87;101555.25;5038342;28;45256;-57
2023/07/13 09:57:04;;;;;;;;;6.75;3.75;;;;;29.50;32.75;101549.72;5038195;28;45429;-60
2023/07/13 09:59:34;;;;;;;;;1.50;1.50;;;;;29.53;32.80;101549.38;5038602;28;45240;-57
2023/07/13 10:02:00;;;;;;;;;1.00;1.00;;;;;29.53;32.27;101560.41;5038580;28;45351;-58
2023/07/13 10:04:32;;;;;;;;;2.00;2.00;;;;;29.54;32.58;101541.94;5038586;28;45366;-58
2023/07/13 10:07:13;;;;;;;;;3.25;2.00;;;;;29.60;32.59;101553.16;5038692;28;46115;-58
2023/07/13 10:09:38;;;;;;;;;2.00;2.00;;;;;29.69;32.58;101556.75;5038271;28;45280;-57
2023/07/13 10:12:13;;;;;;;;;2.00;2.00;;;;;29.60;32.22;101563.38;5038302;28;45272;-58
2023/07/13 10:14:41;;;;;;;;;3.00;3.00;;;;;29.57;32.76;101558.19;5038528;28;45343;-58
2023/07/13 10:17:12;;;;;;;;;5.00;2.00;;;;;29.43;33.22;101559.75;5038504;28;46224;-57
2023/07/13 10:19:38;;;;;;;;;1.25;1.25;;;;;29.37;33.19;101560.44;5038388;28;45343;-58
2023/07/13 10:22:43;;;;;;;;;2.25;2.25;;;;;29.51;32.74;101558.88;5038672;28;45501;-58
2023/07/13 10:25:19;;;;;;;;;2.75;2.75;;;;;29.67;32.34;101567.16;5037810;28;45541;-58
2023/07/13 10:27:45;;;;;;;;;3.00;3.00;;;;;29.76;32.12;101562.47;5037544;28;46113;-59
2023/07/13 10:30:23;;;;;;;;;3.50;2.00;;;;;29.78;32.48;101576.97;5038083;28;45295;-59
2023/07/13 10:32:50;;;;;;;;;3.00;1.50;;;;;29.68;31.91;101571.66;5039229;28;45392;-58
2023/07/13 10:35:18;;;;;;;;;1.00;1.00;;;;;29.67;32.13;101567.16;5041702;28;45337;-58
2023/07/13 10:38:14;;;;;;;;;1.25;1.25;;;;;29.74;32.70;101582.00;5041352;28;46125;-57
2023/07/13 10:40:43;;;;;;;;;3.75;2.25;;;;;30.03;31.79;101575.91;5013030;28;45420;-58
2023/07/13 10:43:20;;;;;;;;;1.75;1.75;;;;;29.98;32.05;101581.97;5041767;28;45288;-59
2023/07/13 10:45:49;;;;;;;;;2.75;2.75;;;;;29.93;31.83;101576.09;5041603;28;45655;-58
2023/07/13 10:48:16;;;;;;;;;3.00;3.00;;;;;29.79;32.48;101579.56;5041384;28;46096;-58
2023/07/13 10:50:45;;;;;;;;;2.00;2.00;;;;;29.81;32.36;101582.16;5041210;28;45225;-59
2023/07/13 10:53:22;;;;;;;;;1.50;1.50;;;;;29.79;32.04;101587.00;5041509;28;45331;-59
2023/07/13 10:55:50;;;;;;;;;2.00;2.00;;;;;29.83;32.27;101591.16;5040303;28;45366;-57
2023/07/13 10:58:22;;;;;;;;;0.50;0.50;;;;;29.67;32.67;101579.09;5041232;28;46725;-58
2023/07/13 11:00:58;;;;;;;;;2.00;2.00;;;;;29.61;32.36;101592.72;5041422;28;45311;-58
2023/07/13 11:03:28;;;;;;;;;2.00;2.00;;;;;29.59;32.82;101595.66;5041365;28;45356;-58
2023/07/13 11:06:08;;;;;;;;;1.50;1.50;;;;;29.67;32.39;101590.13;5040648;28;45430;-59
2023/07/13 11:08:38;;;;;;;;;2.00;2.00;;;;;29.65;32.88;101594.09;5040876;28;45260;-58
2023/07/13 11:11:23;;;;;;;;;2.00;2.00;;;;;29.80;31.93;101584.06;5040956;28;45351;-58
2023/07/13 11:13:48;;;;;;;;;1.50;1.50;;;;;29.86;32.01;101586.09;5041203;28;45393;-58
2023/07/13 11:16:14;;;;;;;;;2.00;2.00;;;;;29.88;32.38;101584.03;5041088;28;45436;-57
2023/07/13 11:18:39;;;;;;;;;3.00;1.75;;;;;30.07;32.12;101563.47;5041340;28;46181;-57
2023/07/13 11:21:16;;;;;;;;;1.75;1.75;;;;;30.28;32.09;101572.06;5041155;28;45356;-57
2023/07/13 11:23:44;;;;;;;;;1.75;1.75;;;;;30.22;31.16;101571.88;5041205;28;45360;-57
2023/07/13 11:26:48;;;;;;;;;2.50;2.50;;;;;30.38;31.41;101569.91;5040800;28;45861;-57
2023/07/13 11:29:31;;;;;;;;;3.00;3.00;;;;;30.67;31.44;101562.91;5039058;28;45425;-58
2023/07/13 11:31:59;;;;;;;;;0.50;0.50;;;;;30.80;30.34;101558.47;5041072;28;45415;-56
2023/07/13 11:34:28;;;;;;;;;2.00;2.00;;;;;30.96;30.25;101563.06;5042302;28;45263;-59
2023/07/13 11:36:56;;;;;;;;;0.00;0.00;;;;;30.94;30.19;101553.22;5041005;28;45418;-59
2023/07/13 11:39:31;;;;;;;;;2.25;2.25;;;;;30.91;30.35;101557.22;5040627;28;46216;-58
2023/07/13 11:42:02;;;;;;;;;1.25;1.25;;;;;30.94;29.93;101544.91;5040836;28;45477;-59
2023/07/13 11:44:30;;;;;;;;;1.00;1.00;;;;;31.03;30.20;101541.03;5041048;28;45394;-58
2023/07/13 11:47:07;;;;;;;;;1.75;1.75;;;;;31.13;30.07;101539.78;5040661;28;47460;-59
2023/07/13 11:49:42;;;;;;;;;1.75;1.75;;;;;30.74;29.69;101538.97;5040760;28;47069;-60
2023/07/13 11:52:13;;;;;;;;;0.75;0.75;;;;;30.91;30.26;101534.19;5040759;28;45335;-60
2023/07/13 11:54:55;;;;;;;;;1.25;1.25;;;;;31.24;29.32;101540.38;5040365;28;45385;-59
2023/07/13 11:57:39;;;;;;;;;1.00;1.00;;;;;31.31;28.63;101536.66;5040750;28;45245;-60
2023/07/13 12:00:14;;;;;;;;;2.75;2.25;;;;;30.96;28.76;101542.81;5040507;28;45197;-58
2023/07/13 12:02:43;;;;;;;;;0.50;0.50;;;;;30.68;29.51;101535.03;5040486;28;45302;-59
2023/07/13 12:05:14;;;;;;;;;2.75;1.75;;;;;30.94;28.98;101534.69;5040631;28;45459;-59
2023/07/13 12:07:41;;;;;;;;;2.00;0.75;;;;;31.10;28.79;101539.28;5039669;28;45509;-59
2023/07/13 12:10:11;;;;;;;;;1.75;1.75;;;;;31.35;28.88;101531.63;5039777;28;46277;-59
2023/07/13 12:12:37;;;;;;;;;0.75;0.75;;;;;31.41;27.87;101528.97;5040632;28;45340;-59
2023/07/13 12:15:08;;;;;;;;;2.00;0.75;;;;;31.69;28.32;101526.47;5040758;28;45327;-59
2023/07/13 12:17:34;;;;;;;;;0.00;0.00;;;;;31.61;28.08;101529.28;5040315;28;46291;-59
2023/07/13 12:20:20;;;;;;;;;0.50;0.50;;;;;31.45;27.30;101515.59;5038538;28;46233;-59
2023/07/13 12:22:47;;;;;;;;;0.00;0.00;;;;;31.56;27.27;101521.53;5039780;28;45378;-59
2023/07/13 12:25:13;;;;;;;;;1.00;1.00;;;;;31.34;27.20;101525.22;5036703;28;45352;-59
2023/07/13 12:27:38;;;;;;;;;0.75;0.75;;;;;31.38;26.90;101522.94;5036354;28;45542;-59
2023/07/13 12:30:23;;;;;;;;;0.75;0.75;;;;;31.06;26.32;101521.25;5039535;28;54753;-59
2023/07/13 12:33:01;;;;;;;;;1.00;1.00;;;;;30.72;26.25;101519.78;5040684;28;45273;-60
2023/07/13 12:35:29;;;;;;;;;0.75;0.50;;;;;30.99;26.66;101514.75;5039756;28;45328;-58
2023/07/13 12:37:57;;;;;;;;;1.75;0.25;;;;;30.94;26.30;101506.13;5039999;28;45504;-59
2023/07/13 12:40:28;;;;;;;;;0.50;0.50;;;;;31.08;26.82;101519.19;5039031;28;45411;-59
2023/07/13 12:42:54;;;;;;;;;0.25;0.25;;;;;31.13;25.89;101517.63;5039551;28;45396;-60
2023/07/13 12:45:23;;;;;;;;;0.75;0.75;;;;;31.11;25.81;101505.00;5039966;28;45430;-60
2023/07/13 12:47:54;;;;;;;;;3.00;0.00;;;;;31.30;25.56;101511.94;5039530;28;45211;-59
2023/07/13 12:50:28;;;;;;;;;1.50;0.75;;;;;31.41;25.96;101508.69;5038759;28;46377;-61
2023/07/13 12:53:01;;;;;;;;;0.75;0.75;;;;;31.22;25.64;101517.56;5039499;28;45346;-59
2023/07/13 12:55:28;;;;;;;;;1.00;0.75;;;;;31.41;25.21;101519.78;5039449;28;45296;-59
2023/07/13 12:57:57;;;;;;;;;0.75;0.75;;;;;31.50;25.04;101513.13;5038874;28;46134;-59
2023/07/13 13:00:24;;;;;;;;;0.00;0.00;;;;;31.68;25.02;101510.03;5039540;28;45397;-58
2023/07/13 13:02:51;;;;;;;;;1.00;1.00;;;;;31.66;24.50;101512.97;5039412;28;45175;-59
2023/07/13 13:05:17;;;;;;;;;0.50;0.50;;;;;31.53;24.53;101499.75;5039722;28;45340;-59
2023/07/13 13:07:42;;;;;;;;;0.50;0.50;;;;;31.62;25.01;101500.56;5039243;28;45181;-58
2023/07/13 13:10:12;;;;;;;;;0.00;0.00;;;;;31.49;24.57;101511.38;5038651;28;63134;-59
2023/07/13 13:12:37;;;;;;;;;0.00;0.00;;;;;31.50;25.00;101500.13;5039345;28;45268;-58
2023/07/13 13:15:06;;;;;;;;;0.25;0.25;;;;;31.67;24.62;101500.84;5036994;28;45394;-58
2023/07/13 13:17:32;;;;;;;;;0.50;0.50;;;;;31.34;25.28;101500.28;5037433;28;45223;-59
2023/07/13 13:19:57;;;;;;;;;0.00;0.00;;;;;31.35;25.23;101509.44;5038561;28;46470;-59
2023/07/13 13:22:23;;;;;;;;;1.00;1.00;;;;;31.72;25.57;101508.59;5038677;28;48653;-58
2023/07/13 13:24:48;;;;;;;;;1.25;1.25;;;;;31.98;25.23;101503.44;5039055;28;45361;-58
2023/07/13 13:27:19;;;;;;;;;1.00;1.00;;;;;32.23;25.32;101502.13;5039130;28;45488;-60
2023/07/13 13:29:45;;;;;;;;;0.75;0.75;;;;;32.47;24.51;101500.91;5038777;28;46684;-59
2023/07/13 13:32:15;;;;;;;;;2.00;0.00;;;;;32.18;24.64;101503.72;5039471;28;45315;-58
2023/07/13 13:34:41;;;;;;;;;0.75;0.75;;;;;32.40;25.30;101499.13;5028410;28;45333;-60
2023/07/13 13:37:21;;;;;;;;;0.75;0.75;;;;;32.45;24.40;101508.56;5038779;28;45336;-59
2023/07/13 13:39:48;;;;;;;;;0.25;0.25;;;;;32.44;24.27;101498.53;5038299;28;45272;-58
2023/07/13 13:42:14;;;;;;;;;1.50;0.75;;;;;32.30;24.68;101499.44;5039249;28;45486;-58
2023/07/13 13:44:41;;;;;;;;;0.75;0.75;;;;;32.12;25.03;101499.78;5039356;28;45474;-59
2023/07/13 13:47:30;;;;;;;;;0.00;0.00;;;;;32.54;24.38;101504.63;5038113;28;45260;-59
2023/07/13 13:49:56;;;;;;;;;0.75;0.75;;;;;32.58;24.03;101507.88;5038952;28;46314;-59
2023/07/13 13:52:21;;;;;;;;;0.25;0.25;;;;;32.98;24.69;101501.72;5039100;28;45209;-59
2023/07/13 13:54:46;;;;;;;;;0.75;0.75;;;;;32.85;23.99;101493.25;5038646;28;45419;-60
2023/07/13 13:57:12;;;;;;;;;0.75;0.75;;;;;33.19;23.23;101497.19;5038211;28;45307;-59
2023/07/13 13:59:39;;;;;;;;;1.00;0.00;;;;;33.11;24.04;101475.97;5038714;28;46904;-60
2023/07/13 14:02:21;;;;;;;;;0.75;0.75;;;;;33.37;23.20;101480.94;5038944;28;45341;-59
2023/07/13 14:04:50;;;;;;;;;2.00;0.75;;;;;33.42;23.40;101476.50;5038760;28;45274;-59
2023/07/13 14:07:16;;;;;;;;;2.00;0.75;;;;;33.70;23.66;101490.38;5037246;28;46028;-59
2023/07/13 14:09:41;;;;;;;;;0.00;0.00;;;;;33.43;23.44;101475.41;5040173;28;62752;-59
2023/07/13 14:12:11;;;;;;;;;0.00;0.00;;;;;33.24;23.54;101486.41;5042319;28;45781;-58
2023/07/13 14:14:37;;;;;;;;;0.25;0.25;;;;;33.08;23.42;101479.16;5042086;28;45320;-59
2023/07/13 14:17:03;;;;;;;;;0.50;0.50;;;;;33.04;23.26;101470.38;5041906;28;45372;-59
2023/07/13 14:19:29;;;;;;;;;1.50;0.75;;;;;32.91;24.04;101478.59;5041974;28;46642;-59
2023/07/13 14:21:54;;;;;;;;;0.00;0.00;;;;;32.82;24.00;101468.66;5042423;28;45334;-59
2023/07/13 14:24:21;;;;;;;;;1.00;1.00;;;;;32.95;23.55;101474.34;5041767;28;45331;-59
2023/07/13 14:26:47;;;;;;;;;1.25;1.25;;;;;32.82;23.89;101457.56;5041535;28;45314;-58
2023/07/13 14:29:18;;;;;;;;;2.00;1.25;;;;;32.97;24.54;101463.88;5041912;28;45315;-59
2023/07/13 14:31:44;;;;;;;;;1.00;1.00;;;;;32.97;23.33;101469.44;5041654;28;45323;-58
2023/07/13 14:34:11;;;;;;;;;1.00;1.00;;;;;32.79;23.90;101459.84;5042907;28;45525;-59
2023/07/13 14:36:41;;;;;;;;;2.00;2.00;;;;;32.60;24.33;101462.19;5042061;28;45400;-58
2023/07/13 14:39:16;;;;;;;;;0.75;0.75;;;;;32.68;23.85;101461.19;5041073;28;46135;-59
2023/07/13 14:41:42;;;;;;;;;1.25;1.25;;;;;32.88;24.09;101465.09;5041570;28;45209;-58
2023/07/13 14:44:16;;;;;;;;;2.50;2.00;;;;;32.95;24.66;101451.25;5041610;28;45235;-59
2023/07/13 14:46:44;;;;;;;;;1.00;1.00;;;;;33.06;24.48;101456.28;5041250;28;45383;-58
2023/07/13 14:49:29;;;;;;;;;1.00;1.00;;;;;33.06;23.91;101443.25;5041008;28;46171;-59
2023/07/13 14:51:58;;;;;;;;;1.00;1.00;;;;;32.93;24.46;101467.25;5041700;28;45323;-58
2023/07/13 14:54:24;;;;;;;;;0.00;0.00;;;;;32.74;24.60;101459.59;5041479;28;45407;-58
2023/07/13 14:56:50;;;;;;;;;0.75;0.75;;;;;32.81;24.56;101463.31;5041579;28;45249;-59
2023/07/13 14:59:15;;;;;;;;;1.00;1.00;;;;;32.81;24.12;101468.84;5041621;28;45305;-59
2023/07/13 15:01:41;;;;;;;;;2.00;2.00;;;;;32.59;24.39;101466.00;5041505;28;45236;-59
2023/07/13 15:04:07;;;;;;;;;1.00;1.00;;;;;32.52;24.68;101469.78;5023982;28;45496;-59
2023/07/13 15:06:53;;;;;;;;;1.75;1.00;;;;;32.46;25.11;101462.25;5041442;28;45482;-59
2023/07/13 15:09:18;;;;;;;;;0.25;0.25;;;;;32.42;25.33;101460.91;5041028;28;46220;-60
2023/07/13 15:11:43;;;;;;;;;1.00;1.00;;;;;32.43;25.29;101449.59;5041219;28;45348;-58
2023/07/13 15:14:09;;;;;;;;;1.50;1.50;;;;;32.58;25.24;101455.97;5041447;28;45334;-58
2023/07/13 15:16:34;;;;;;;;;1.25;1.25;;;;;32.50;25.03;101456.09;5041151;28;47829;-60
2023/07/13 15:18:59;;;;;;;;;1.50;1.50;;;;;32.35;25.02;101462.75;5040600;28;45350;-59
2023/07/13 15:21:25;;;;;;;;;3.25;1.75;;;;;32.53;25.22;101452.94;5041540;28;45355;-59
2023/07/13 15:23:51;;;;;;;;;1.25;1.25;;;;;32.64;24.95;101455.19;5041354;28;45449;-59
2023/07/13 15:26:18;;;;;;;;;1.50;1.00;;;;;32.69;25.17;101449.94;5040725;28;45588;-59
2023/07/13 15:28:45;;;;;;;;;1.00;1.00;;;;;32.71;24.63;101446.09;5040905;28;45261;-59
2023/07/13 15:31:26;;;;;;;;;2.50;0.75;;;;;32.72;24.74;101450.59;5040661;28;45247;-59
2023/07/13 15:33:54;;;;;;;;;1.00;1.00;;;;;32.77;24.95;101453.63;5041991;28;45323;-59
2023/07/13 15:36:20;;;;;;;;;2.00;2.00;;;;;32.81;24.85;101441.09;5040878;28;46082;-59
2023/07/13 15:38:48;;;;;;;;;0.75;0.75;;;;;32.87;24.89;101443.91;5040466;28;46410;-59
2023/07/13 15:41:17;;;;;;;;;2.00;2.00;;;;;32.92;25.37;101446.94;5040617;28;45233;-59
2023/07/13 15:43:43;;;;;;;;;1.00;1.00;;;;;32.69;25.20;101446.28;5040153;28;45466;-59
2023/07/13 15:46:09;;;;;;;;;3.00;1.25;;;;;32.87;25.25;101441.13;5040550;28;45470;-59
2023/07/13 15:48:34;;;;;;;;;1.00;1.00;;;;;32.90;25.24;101440.75;5040564;28;46144;-59
2023/07/13 15:51:02;;;;;;;;;1.25;1.25;;;;;33.06;25.11;101432.13;5040914;28;46052;-59
2023/07/13 15:53:33;;;;;;;;;0.75;0.75;;;;;33.06;25.20;101432.13;5039568;28;45315;-58
2023/07/13 15:55:59;;;;;;;;;1.50;1.50;;;;;32.87;25.29;101440.28;5039723;28;45359;-64
2023/07/13 15:58:26;;;;;;;;;0.75;0.75;;;;;33.07;25.11;101444.09;5040048;28;46592;-63
2023/07/13 16:00:53;;;;;;;;;4.75;2.00;;;;;32.87;25.22;101435.59;5040246;28;45302;-56
2023/07/13 16:03:19;;;;;;;;;2.00;2.00;;;;;32.94;24.80;101447.59;5039734;28;45244;-57
2023/07/13 16:05:45;;;;;;;;;2.00;2.00;;;;;32.66;24.90;101449.47;5038898;28;45509;-56
2023/07/13 16:08:40;;;;;;;;;0.00;0.00;;;;;32.62;25.65;101453.66;5039406;28;45312;-56
2023/07/13 16:11:08;;;;;;;;;2.00;2.00;;;;;32.69;25.12;101449.94;5038285;28;45382;-55
2023/07/13 16:13:33;;;;;;;;;1.75;0.75;;;;;32.88;25.38;101455.88;5040545;28;45348;-56
2023/07/13 16:15:58;;;;;;;;;1.75;1.75;;;;;32.89;25.38;101452.91;5038394;28;45454;-56
2023/07/13 16:18:24;;;;;;;;;2.25;2.00;;;;;32.96;25.01;101434.38;5032545;28;46009;-56
2023/07/13 16:20:49;;;;;;;;;5.00;2.00;;;;;32.92;25.42;101441.38;5038452;28;45447;-56
2023/07/13 16:23:16;;;;;;;;;2.75;2.00;;;;;32.81;24.82;101449.41;5039894;28;45340;-56
2023/07/13 16:25:42;;;;;;;;;3.00;2.00;;;;;32.79;25.02;101446.84;5042472;28;45414;-57
2023/07/13 16:28:12;;;;;;;;;0.00;0.00;;;;;32.83;25.29;101439.84;5039856;28;45282;-57
2023/07/13 16:30:37;;;;;;;;;1.25;1.25;;;;;32.89;25.34;101446.50;5039006;28;45305;-55
2023/07/13 16:33:05;;;;;;;;;0.75;0.75;;;;;32.73;25.60;101439.31;5040494;28;45925;-57
2023/07/13 16:35:38;;;;;;;;;3.00;3.00;;;;;32.51;25.30;101443.94;5039759;28;45217;-56
2023/07/13 16:38:22;;;;;;;;;12.50;12.50;;;;;32.43;25.33;101432.09;5038750;28;45362;-56
2023/07/13 16:40:47;;;;;;;;;4.75;4.00;;;;;32.39;25.94;101444.66;5039562;28;45474;-56
2023/07/13 16:43:17;;;;;;;;;2.00;2.00;;;;;32.44;26.09;101440.22;5039711;28;45292;-57
2023/07/13 16:45:44;;;;;;;;;2.50;2.50;;;;;32.51;26.02;101441.16;5039667;28;45237;-57
2023/07/13 16:48:15;;;;;;;;;2.00;2.00;;;;;32.47;25.79;101444.53;5039324;28;46964;-55
2023/07/13 16:50:41;;;;;;;;;2.50;2.50;;;;;32.35;25.47;101437.78;5039678;28;45225;-57
2023/07/13 16:53:29;;;;;;;;;1.75;1.75;;;;;32.42;26.08;101433.16;5039734;28;45500;-57
2023/07/13 16:55:55;;;;;;;;;1.50;1.50;;;;;32.55;25.69;101420.28;5038888;28;45313;-55
2023/07/13 16:58:28;;;;;;;;;3.00;3.00;;;;;32.52;25.47;101428.13;5039313;28;46424;-56
2023/07/13 17:00:54;;;;;;;;;2.00;2.00;;;;;32.51;25.84;101437.53;5039373;28;45259;-56
2023/07/13 17:03:20;;;;;;;;;1.50;1.50;;;;;32.44;25.56;101433.81;5039579;28;45331;-60
2023/07/13 17:05:48;;;;;;;;;0.50;0.50;;;;;32.44;25.14;101436.59;5039570;28;45335;-55
2023/07/13 17:08:20;;;;;;;;;1.00;1.00;;;;;32.52;25.42;101434.56;5039309;28;46181;-56
2023/07/13 17:10:48;;;;;;;;;0.00;0.00;;;;;32.54;25.45;101435.22;5039237;28;45340;-56
2023/07/13 17:13:16;;;;;;;;;1.00;1.00;;;;;32.41;25.79;101439.78;5039630;28;45478;-55
2023/07/13 17:15:42;;;;;;;;;0.75;0.75;;;;;32.20;25.39;101440.59;5039359;28;45537;-56
2023/07/13 17:18:10;;;;;;;;;1.00;1.00;;;;;32.24;25.64;101436.38;5039344;28;46249;-56
2023/07/13 17:20:43;;;;;;;;;2.50;1.00;;;;;32.05;25.80;101439.72;5039132;28;45325;-56
2023/07/13 17:23:16;;;;;;;;;2.00;2.00;;;;;32.05;25.93;101442.50;5039575;28;45400;-56
2023/07/13 17:25:42;;;;;;;;;2.00;2.00;;;;;32.00;26.67;101445.84;5038317;28;45556;-54
2023/07/13 17:28:11;;;;;;;;;1.00;1.00;;;;;32.02;26.35;101432.66;5039106;28;45232;-58
2023/07/13 17:30:39;;;;;;;;;1.75;1.75;;;;;31.93;26.28;101434.66;5038795;28;45297;-55
2023/07/13 17:33:08;;;;;;;;;2.00;2.00;;;;;32.01;26.59;101430.06;5040063;28;45284;-56
2023/07/13 17:35:35;;;;;;;;;4.00;2.00;;;;;31.93;26.32;101434.66;5038979;28;45251;-54